• Join FlightAware (Why Join?)
  • Login
  • US Flag 
02:53AM EDT


 

Airport Tracker/Info


-or-


 

Live Flight TrackerFlight Track Log ✈ JBU917 ✈ 09-Jul-2013 ✈ KBOS - KJFK

Flight Track Log - Related Links

Times and Time Zones

All times are in EDT time to prevent confusion due to time zone crossing. See the JBU917 flight status page for this flight to view local times or setup timezone preferences in your user account.

Time Position Orientation Groundspeed Altitude Reporting Facility
EDT Latitude Longitude Course Direction KTS MPH feet Rate Location/Type
06:01AM 42.3667 -70.9667 160° South 164 189 700  Level KA90
06:01AM 42.3667 -70.9333 90° East 164 189 1,800 1,800 Climbing KA90
06:02AM 42.3850 -70.8519 73° East 269 310 4,200 2,760 Climbing Boston Center
06:03AM 42.3750 -70.7286 96° East 275 316 8,200 3,480 Climbing Boston Center
06:04AM 42.3153 -70.6961 164° South  Level FlightAware Approximate
06:04AM 42.2950 -70.6831 157° South 248 285 11,200  Level Boston Center
06:05AM 42.2316 -70.6491 160° South  Level FlightAware Approximate
06:05AM 42.2028 -70.6436 162° South 303 349 13,800  Level Boston Center
06:06AM 42.1459 -70.6062 160° South  Level FlightAware Approximate
06:06AM 42.1067 -70.6267 173° South 329 379 16,300  Level Boston Center
06:07AM 42.0053 -70.6744 199° South 349 402 19,300 2,640 Climbing Boston Center
06:08AM 41.9100 -70.7161 198° South 361 415 21,700 1,320 Climbing Boston Center
06:09AM 41.8322 -70.8075 221° Southwest 361 415 22,000 120 Climbing Boston Center
06:10AM 41.7625 -70.8928 222° Southwest 381 438 22,000  Level Boston Center
06:12AM 41.6639 -71.0089 221° Southwest 391 450 22,000  Level Boston Center
06:13AM 41.5839 -71.1025 221° Southwest 391 450 22,000  Level Boston Center
06:14AM 41.5036 -71.1928 220° Southwest 386 444 22,000  Level Boston Center
06:15AM 41.4214 -71.2886 221° Southwest 386 444 22,000  Level Boston Center
06:16AM 41.3450 -71.3811 222° Southwest 386 444 22,000  Level Boston Center
06:17AM 41.2625 -71.4764 221° Southwest 386 444 22,000  Level Boston Center
06:18AM 41.1739 -71.5769 221° Southwest 386 444 22,000  Level Boston Center
06:19AM 41.1411 -71.6931 249° West 368 423 22,000 -180 Level Boston Center
06:20AM 41.1150 -71.8367 256° West 400 460 21,700 -960 Descending Boston Center
06:21AM 41.0886 -71.9939 257° West 405 466 20,100 -1,680 Descending Boston Center
06:22AM 41.0600 -72.1264 254° West 387 445 18,400 -1,440 Descending Boston Center
06:23AM 41.0394 -72.2392 256° West 373 429 17,300 -1,320 Descending Boston Center
06:24AM 41.0144 -72.3658 255° West 368 423 15,800 -1,680 Descending Boston Center
06:25AM 40.9875 -72.5006 255° West 356 410 14,000 -1,560 Descending Boston Center
06:26AM 40.9644 -72.6186 256° West 351 404 12,800 -1,020 Descending Boston Center
06:27AM 40.9453 -72.7314 257° West 334 384 12,000 -420 Descending Boston Center
06:27AM 40.9333 -72.8000 257° West 292 336 12,100  Climbing New York TRACON
06:28AM 40.8500 -72.8667 211° Southwest 303 349 12,100 -60 Level New York TRACON
06:29AM 40.7833 -72.9333 217° Southwest 300 345 12,000 -900 Descending New York TRACON
06:30AM 40.7333 -73.0000 225° Southwest 291 335 10,400 -1,620 Descending New York TRACON
06:31AM 40.7000 -73.0833 242° Southwest 277 319 9,000 -1,560 Descending New York TRACON
06:32AM 40.6833 -73.2000 259° West 270 311 7,300 -1,560 Descending New York TRACON
06:33AM 40.7000 -73.2833 285° West 264 304 5,800 -1,080 Descending New York TRACON
06:34AM 40.7000 -73.3833 270° West 255 293 5,100 -360 Descending New York TRACON
06:35AM 40.7167 -73.4833 282° West 251 289 5,100 -120 Level New York TRACON
06:36AM 40.7333 -73.5500 288° West 206 237 4,900 -720 Descending New York TRACON
06:38AM 40.7500 -73.6167 288° West 178 205 3,600 -1,260 Descending New York TRACON
06:38AM 40.7500 -73.6667 270° West 184 212 2,400 -1,140 Descending New York TRACON
06:39AM 40.7167 -73.7000 217° Southwest 162 186 1,600 -780 Descending New York TRACON
06:40AM 40.6833 -73.7167 201° Southwest 128 147 1,000 -660 Descending New York TRACON
06:41AM 40.6500 -73.7500 217° Southwest 124 143 300 -720 Descending New York TRACON
06:43AM 40.6333 -73.7667 North  Level FlightAware Approximate
06:50AM 40.6398 -73.7789 North  Level Estimated